sensor_id;sensor_type;location;lat;lon;timestamp;pressure;altitude;pressure_sealevel;temperature;humidity
59787;BME280;45672;51.612;5.536;2023-05-03T00:01:53;102704.66;;;7.19;74.03
59787;BME280;45672;51.612;5.536;2023-05-03T00:04:19;102705.50;;;7.20;74.19
59787;BME280;45672;51.612;5.536;2023-05-03T00:06:44;102695.94;;;7.17;73.96
59787;BME280;45672;51.612;5.536;2023-05-03T00:09:09;102697.22;;;7.10;74.75
59787;BME280;45672;51.612;5.536;2023-05-03T00:11:35;102698.06;;;7.11;75.09
59787;BME280;45672;51.612;5.536;2023-05-03T00:14:00;102690.13;;;7.11;74.73
59787;BME280;45672;51.612;5.536;2023-05-03T00:16:26;102699.22;;;7.06;74.20
59787;BME280;45672;51.612;5.536;2023-05-03T00:18:51;102691.50;;;7.02;74.98
59787;BME280;45672;51.612;5.536;2023-05-03T00:21:16;102700.50;;;6.99;75.26
59787;BME280;45672;51.612;5.536;2023-05-03T00:23:41;102694.88;;;6.89;75.64
59787;BME280;45672;51.612;5.536;2023-05-03T00:26:07;102693.22;;;6.87;75.40
59787;BME280;45672;51.612;5.536;2023-05-03T00:28:32;102686.75;;;6.77;76.74
59787;BME280;45672;51.612;5.536;2023-05-03T00:31:05;102687.69;;;6.76;76.70
59787;BME280;45672;51.612;5.536;2023-05-03T00:33:30;102692.78;;;6.79;78.06
59787;BME280;45672;51.612;5.536;2023-05-03T00:35:56;102695.09;;;6.85;77.53
59787;BME280;45672;51.612;5.536;2023-05-03T00:38:21;102692.44;;;6.85;76.71
59787;BME280;45672;51.612;5.536;2023-05-03T00:40:52;102689.81;;;6.85;78.48
59787;BME280;45672;51.612;5.536;2023-05-03T00:43:18;102690.75;;;6.84;77.97
59787;BME280;45672;51.612;5.536;2023-05-03T00:45:43;102695.09;;;6.85;77.88
59787;BME280;45672;51.612;5.536;2023-05-03T00:48:11;102696.16;;;6.82;78.08
59787;BME280;45672;51.612;5.536;2023-05-03T00:50:37;102698.09;;;6.79;77.72
59787;BME280;45672;51.612;5.536;2023-05-03T00:53:03;102701.75;;;6.76;77.37
59787;BME280;45672;51.612;5.536;2023-05-03T00:55:29;102700.38;;;6.69;77.70
59787;BME280;45672;51.612;5.536;2023-05-03T00:57:56;102708.22;;;6.70;79.04
59787;BME280;45672;51.612;5.536;2023-05-03T01:00:22;102700.56;;;6.66;78.09
59787;BME280;45672;51.612;5.536;2023-05-03T01:02:48;102693.72;;;6.62;78.84
59787;BME280;45672;51.612;5.536;2023-05-03T01:05:14;102700.03;;;6.59;78.01
59787;BME280;45672;51.612;5.536;2023-05-03T01:07:53;102689.97;;;6.50;77.51
59787;BME280;45672;51.612;5.536;2023-05-03T01:10:33;102693.16;;;6.39;78.74
59787;BME280;45672;51.612;5.536;2023-05-03T01:13:13;102687.34;;;6.32;78.21
59787;BME280;45672;51.612;5.536;2023-05-03T01:18:26;102690.50;;;6.23;79.00
59787;BME280;45672;51.612;5.536;2023-05-03T01:20:55;102688.78;;;6.22;79.47
59787;BME280;45672;51.612;5.536;2023-05-03T01:26:23;102695.94;;;6.20;78.29
59787;BME280;45672;51.612;5.536;2023-05-03T01:28:50;102693.59;;;6.14;79.38
59787;BME280;45672;51.612;5.536;2023-05-03T01:31:56;102700.69;;;6.13;78.25
59787;BME280;45672;51.612;5.536;2023-05-03T01:34:32;102702.25;;;6.17;79.26
59787;BME280;45672;51.612;5.536;2023-05-03T01:37:03;102713.50;;;6.21;78.24
59787;BME280;45672;51.612;5.536;2023-05-03T01:39:57;102708.28;;;6.19;79.06
59787;BME280;45672;51.612;5.536;2023-05-03T01:42:21;102697.19;;;6.13;79.46
59787;BME280;45672;51.612;5.536;2023-05-03T01:44:48;102702.31;;;6.16;79.44
59787;BME280;45672;51.612;5.536;2023-05-03T01:47:14;102698.88;;;6.14;78.98
59787;BME280;45672;51.612;5.536;2023-05-03T01:49:39;102697.34;;;6.10;80.08
59787;BME280;45672;51.612;5.536;2023-05-03T01:52:05;102705.22;;;6.11;79.64
59787;BME280;45672;51.612;5.536;2023-05-03T01:54:30;102703.78;;;6.04;79.37
59787;BME280;45672;51.612;5.536;2023-05-03T01:56:56;102709.41;;;5.98;80.11
59787;BME280;45672;51.612;5.536;2023-05-03T01:59:21;102706.13;;;5.93;81.21
59787;BME280;45672;51.612;5.536;2023-05-03T02:01:46;102692.53;;;5.83;80.94
59787;BME280;45672;51.612;5.536;2023-05-03T02:04:12;102699.22;;;5.90;81.88
59787;BME280;45672;51.612;5.536;2023-05-03T02:06:37;102708.81;;;5.91;80.99
59787;BME280;45672;51.612;5.536;2023-05-03T02:09:02;102702.94;;;5.86;80.90
59787;BME280;45672;51.612;5.536;2023-05-03T02:11:28;102700.38;;;5.84;81.95
59787;BME280;45672;51.612;5.536;2023-05-03T02:13:53;102697.66;;;5.86;81.06
59787;BME280;45672;51.612;5.536;2023-05-03T02:16:18;102701.47;;;5.80;82.01
59787;BME280;45672;51.612;5.536;2023-05-03T02:18:44;102698.91;;;5.79;81.01
59787;BME280;45672;51.612;5.536;2023-05-03T02:21:09;102694.16;;;5.68;80.81
59787;BME280;45672;51.612;5.536;2023-05-03T02:23:35;102701.41;;;5.64;81.32
59787;BME280;45672;51.612;5.536;2023-05-03T02:26:01;102694.41;;;5.63;81.97
59787;BME280;45672;51.612;5.536;2023-05-03T02:28:26;102693.47;;;5.64;81.91
59787;BME280;45672;51.612;5.536;2023-05-03T02:30:51;102694.41;;;5.63;82.57
59787;BME280;45672;51.612;5.536;2023-05-03T02:33:16;102689.72;;;5.68;82.05
59787;BME280;45672;51.612;5.536;2023-05-03T02:35:42;102685.06;;;5.74;83.62
59787;BME280;45672;51.612;5.536;2023-05-03T02:38:07;102682.44;;;5.74;81.93
59787;BME280;45672;51.612;5.536;2023-05-03T02:40:32;102681.59;;;5.73;81.77
59787;BME280;45672;51.612;5.536;2023-05-03T02:42:58;102674.66;;;5.70;81.66
59787;BME280;45672;51.612;5.536;2023-05-03T02:45:24;102671.19;;;5.70;82.01
59787;BME280;45672;51.612;5.536;2023-05-03T02:47:49;102669.72;;;5.64;82.01
59787;BME280;45672;51.612;5.536;2023-05-03T02:50:15;102673.28;;;5.63;82.07
59787;BME280;45672;51.612;5.536;2023-05-03T02:52:40;102654.16;;;5.58;81.76
59787;BME280;45672;51.612;5.536;2023-05-03T02:55:06;102648.28;;;5.53;82.19
59787;BME280;45672;51.612;5.536;2023-05-03T02:57:31;102646.72;;;5.49;82.14
59787;BME280;45672;51.612;5.536;2023-05-03T02:59:57;102639.88;;;5.45;82.44
59787;BME280;45672;51.612;5.536;2023-05-03T03:02:22;102638.31;;;5.41;82.63
59787;BME280;45672;51.612;5.536;2023-05-03T03:04:48;102635.69;;;5.41;81.96
59787;BME280;45672;51.612;5.536;2023-05-03T03:07:13;102634.59;;;5.27;82.85
59787;BME280;45672;51.612;5.536;2023-05-03T03:09:38;102640.06;;;5.23;83.06
59787;BME280;45672;51.612;5.536;2023-05-03T03:12:04;102653.19;;;5.24;83.71
59787;BME280;45672;51.612;5.536;2023-05-03T03:14:29;102661.75;;;5.29;84.35
59787;BME280;45672;51.612;5.536;2023-05-03T03:16:54;102652.19;;;5.27;83.88
59787;BME280;45672;51.612;5.536;2023-05-03T03:19:20;102665.16;;;5.31;83.21
59787;BME280;45672;51.612;5.536;2023-05-03T03:21:45;102661.81;;;5.28;82.94
59787;BME280;45672;51.612;5.536;2023-05-03T03:24:11;102664.47;;;5.28;83.93
59787;BME280;45672;51.612;5.536;2023-05-03T03:26:36;102658.41;;;5.26;83.28
59787;BME280;45672;51.612;5.536;2023-05-03T03:29:01;102666.38;;;5.24;83.51
59787;BME280;45672;51.612;5.536;2023-05-03T03:31:27;102676.66;;;5.30;84.07
59787;BME280;45672;51.612;5.536;2023-05-03T03:33:52;102667.78;;;5.31;83.47
59787;BME280;45672;51.612;5.536;2023-05-03T03:36:17;102682.03;;;5.29;83.71
59787;BME280;45672;51.612;5.536;2023-05-03T03:38:43;102661.97;;;5.25;84.06
59787;BME280;45672;51.612;5.536;2023-05-03T03:41:08;102667.19;;;5.26;83.55
59787;BME280;45672;51.612;5.536;2023-05-03T03:43:33;102672.31;;;5.29;83.51
59787;BME280;45672;51.612;5.536;2023-05-03T03:45:59;102664.38;;;5.29;83.78
59787;BME280;45672;51.612;5.536;2023-05-03T03:48:24;102657.56;;;5.25;84.38
59787;BME280;45672;51.612;5.536;2023-05-03T03:50:50;102667.66;;;5.34;83.82
59787;BME280;45672;51.612;5.536;2023-05-03T03:53:15;102664.06;;;5.35;84.14
59787;BME280;45672;51.612;5.536;2023-05-03T03:55:40;102660.44;;;5.38;84.63
59787;BME280;45672;51.612;5.536;2023-05-03T03:58:06;102660.66;;;5.33;84.12
59787;BME280;45672;51.612;5.536;2023-05-03T04:00:32;102657.13;;;5.34;83.89
59787;BME280;45672;51.612;5.536;2023-05-03T04:02:58;102655.41;;;5.33;83.92
59787;BME280;45672;51.612;5.536;2023-05-03T04:05:23;102663.63;;;5.27;83.07
59787;BME280;45672;51.612;5.536;2023-05-03T04:07:48;102659.44;;;5.23;84.06
59787;BME280;45672;51.612;5.536;2023-05-03T04:10:14;102665.53;;;5.24;83.80
59787;BME280;45672;51.612;5.536;2023-05-03T04:12:39;102673.22;;;5.28;83.92
59787;BME280;45672;51.612;5.536;2023-05-03T04:15:05;102672.47;;;5.26;84.46
59787;BME280;45672;51.612;5.536;2023-05-03T04:17:31;102674.88;;;5.31;84.56
59787;BME280;45672;51.612;5.536;2023-05-03T04:19:58;102681.00;;;5.31;83.83
59787;BME280;45672;51.612;5.536;2023-05-03T04:22:24;102679.06;;;5.35;84.84
59787;BME280;45672;51.612;5.536;2023-05-03T04:24:49;102679.06;;;5.35;83.36
59787;BME280;45672;51.612;5.536;2023-05-03T04:27:14;102681.78;;;5.33;83.25
59787;BME280;45672;51.612;5.536;2023-05-03T04:29:42;102685.50;;;5.29;84.48
59787;BME280;45672;51.612;5.536;2023-05-03T04:32:07;102684.84;;;5.24;84.21
59787;BME280;45672;51.612;5.536;2023-05-03T04:34:33;102684.94;;;5.23;84.62
59787;BME280;45672;51.612;5.536;2023-05-03T04:36:59;102679.50;;;5.26;84.90
59787;BME280;45672;51.612;5.536;2023-05-03T04:39:24;102685.50;;;5.29;84.38
59787;BME280;45672;51.612;5.536;2023-05-03T04:41:50;102690.78;;;5.29;84.60
59787;BME280;45672;51.612;5.536;2023-05-03T04:44:15;102684.78;;;5.26;84.12
59787;BME280;45672;51.612;5.536;2023-05-03T04:46:40;102696.38;;;5.23;84.54
59787;BME280;45672;51.612;5.536;2023-05-03T04:49:07;102698.78;;;5.28;85.24
59787;BME280;45672;51.612;5.536;2023-05-03T04:51:32;102707.31;;;5.33;83.58
59787;BME280;45672;51.612;5.536;2023-05-03T04:53:58;102711.13;;;5.27;84.82
59787;BME280;45672;51.612;5.536;2023-05-03T04:56:23;102719.97;;;5.26;84.61
59787;BME280;45672;51.612;5.536;2023-05-03T04:58:52;102718.09;;;5.28;83.85
59787;BME280;45672;51.612;5.536;2023-05-03T05:01:18;102723.53;;;5.25;84.74
59787;BME280;45672;51.612;5.536;2023-05-03T05:03:43;102735.97;;;5.23;84.89
59787;BME280;45672;51.612;5.536;2023-05-03T05:06:09;102735.56;;;5.31;85.09
59787;BME280;45672;51.612;5.536;2023-05-03T05:08:36;102740.47;;;5.39;84.53
59787;BME280;45672;51.612;5.536;2023-05-03T05:11:02;102732.50;;;5.40;85.25
59787;BME280;45672;51.612;5.536;2023-05-03T05:13:28;102740.28;;;5.43;85.01
59787;BME280;45672;51.612;5.536;2023-05-03T05:15:54;102745.16;;;5.51;85.44
59787;BME280;45672;51.612;5.536;2023-05-03T05:18:19;102734.44;;;5.54;85.24
59787;BME280;45672;51.612;5.536;2023-05-03T05:20:45;102734.31;;;5.57;84.43
59787;BME280;45672;51.612;5.536;2023-05-03T05:23:10;102738.72;;;5.57;84.94
59787;BME280;45672;51.612;5.536;2023-05-03T05:25:36;102736.88;;;5.59;84.09
59787;BME280;45672;51.612;5.536;2023-05-03T05:28:01;102739.28;;;5.63;84.21
59787;BME280;45672;51.612;5.536;2023-05-03T05:30:27;102740.38;;;5.59;84.80
59787;BME280;45672;51.612;5.536;2023-05-03T05:32:52;102738.41;;;5.63;83.67
59787;BME280;45672;51.612;5.536;2023-05-03T05:35:17;102751.50;;;5.66;84.26
59787;BME280;45672;51.612;5.536;2023-05-03T05:37:43;102748.78;;;5.67;84.64
59787;BME280;45672;51.612;5.536;2023-05-03T05:40:09;102740.44;;;5.75;84.53
59787;BME280;45672;51.612;5.536;2023-05-03T05:42:35;102738.84;;;5.90;83.98
59787;BME280;45672;51.612;5.536;2023-05-03T05:45:00;102745.22;;;6.03;82.81
59787;BME280;45672;51.612;5.536;2023-05-03T05:47:25;102747.50;;;6.11;83.25
59787;BME280;45672;51.612;5.536;2023-05-03T05:49:51;102752.75;;;6.29;82.65
59787;BME280;45672;51.612;5.536;2023-05-03T05:52:16;102745.88;;;6.42;81.38
59787;BME280;45672;51.612;5.536;2023-05-03T05:54:41;102742.06;;;6.48;80.64
59787;BME280;45672;51.612;5.536;2023-05-03T05:57:07;102755.19;;;6.67;81.05
59787;BME280;45672;51.612;5.536;2023-05-03T05:59:32;102749.81;;;6.84;80.06
59787;BME280;45672;51.612;5.536;2023-05-03T06:01:58;102749.81;;;7.00;77.93
59787;BME280;45672;51.612;5.536;2023-05-03T06:04:24;102756.47;;;7.07;77.89
59787;BME280;45672;51.612;5.536;2023-05-03T06:06:49;102754.53;;;7.11;77.38
59787;BME280;45672;51.612;5.536;2023-05-03T06:09:15;102757.75;;;7.16;77.89
59787;BME280;45672;51.612;5.536;2023-05-03T06:11:40;102753.41;;;7.31;77.03
59787;BME280;45672;51.612;5.536;2023-05-03T06:14:07;102754.69;;;7.40;76.37
59787;BME280;45672;51.612;5.536;2023-05-03T06:16:35;102750.41;;;7.53;75.39
59787;BME280;45672;51.612;5.536;2023-05-03T06:19:01;102747.50;;;7.58;74.75
59787;BME280;45672;51.612;5.536;2023-05-03T06:21:26;102749.16;;;7.75;74.34
59787;BME280;45672;51.612;5.536;2023-05-03T06:23:52;102744.34;;;7.82;74.37
59787;BME280;45672;51.612;5.536;2023-05-03T06:26:17;102744.97;;;8.01;75.30
59787;BME280;45672;51.612;5.536;2023-05-03T06:28:43;102751.09;;;8.32;73.80
59787;BME280;45672;51.612;5.536;2023-05-03T06:31:09;102742.81;;;8.67;72.21
59787;BME280;45672;51.612;5.536;2023-05-03T06:33:35;102746.63;;;9.05;71.25
59787;BME280;45672;51.612;5.536;2023-05-03T06:36:00;102743.59;;;9.38;69.37
59787;BME280;45672;51.612;5.536;2023-05-03T06:38:26;102737.66;;;9.88;66.11
59787;BME280;45672;51.612;5.536;2023-05-03T06:40:51;102733.16;;;10.41;65.66
59787;BME280;45672;51.612;5.536;2023-05-03T06:43:16;102733.28;;;10.90;63.13
59787;BME280;45672;51.612;5.536;2023-05-03T06:45:42;102732.72;;;11.10;61.58
59787;BME280;45672;51.612;5.536;2023-05-03T06:48:08;102726.03;;;11.53;59.96
59787;BME280;45672;51.612;5.536;2023-05-03T06:50:34;102722.59;;;11.86;58.71
59787;BME280;45672;51.612;5.536;2023-05-03T06:52:59;102732.69;;;12.52;56.07
59787;BME280;45672;51.612;5.536;2023-05-03T06:55:25;102737.63;;;12.91;54.42
59787;BME280;45672;51.612;5.536;2023-05-03T06:57:50;102727.06;;;12.89;54.49
59787;BME280;45672;51.612;5.536;2023-05-03T07:00:17;102727.31;;;13.30;53.06
59787;BME280;45672;51.612;5.536;2023-05-03T07:02:42;102723.56;;;13.65;50.99
59787;BME280;45672;51.612;5.536;2023-05-03T07:05:08;102721.41;;;13.59;51.38
59787;BME280;45672;51.612;5.536;2023-05-03T07:07:34;102722.97;;;14.04;50.24
59787;BME280;45672;51.612;5.536;2023-05-03T07:09:59;102735.25;;;14.58;48.91
59787;BME280;45672;51.612;5.536;2023-05-03T07:12:24;102730.72;;;15.09;47.21
59787;BME280;45672;51.612;5.536;2023-05-03T07:14:53;102736.72;;;15.32;45.57
59787;BME280;45672;51.612;5.536;2023-05-03T07:17:18;102733.91;;;15.44;44.67
59787;BME280;45672;51.612;5.536;2023-05-03T07:19:45;102732.47;;;15.79;43.77
59787;BME280;45672;51.612;5.536;2023-05-03T07:22:10;102738.25;;;16.03;43.36
59787;BME280;45672;51.612;5.536;2023-05-03T07:24:36;102738.44;;;16.67;42.63
59787;BME280;45672;51.612;5.536;2023-05-03T07:27:01;102744.97;;;17.20;40.76
59787;BME280;45672;51.612;5.536;2023-05-03T07:29:27;102744.63;;;17.60;39.67
59787;BME280;45672;51.612;5.536;2023-05-03T07:31:52;102741.16;;;17.85;37.73
59787;BME280;45672;51.612;5.536;2023-05-03T07:34:18;102742.56;;;17.17;39.27
59787;BME280;45672;51.612;5.536;2023-05-03T07:36:43;102737.81;;;17.29;39.59
59787;BME280;45672;51.612;5.536;2023-05-03T07:39:08;102741.59;;;17.81;38.25
59787;BME280;45672;51.612;5.536;2023-05-03T07:41:34;102732.63;;;18.42;38.33
59787;BME280;45672;51.612;5.536;2023-05-03T07:43:59;102715.03;;;18.73;36.10
59787;BME280;45672;51.612;5.536;2023-05-03T07:46:24;102724.66;;;18.75;36.22
59787;BME280;45672;51.612;5.536;2023-05-03T07:48:50;102732.56;;;18.34;35.85
59787;BME280;45672;51.612;5.536;2023-05-03T07:51:15;102720.63;;;18.02;36.74
59787;BME280;45672;51.612;5.536;2023-05-03T07:53:40;102717.22;;;17.82;36.49
59787;BME280;45672;51.612;5.536;2023-05-03T07:56:06;102722.63;;;18.35;36.94
59787;BME280;45672;51.612;5.536;2023-05-03T07:58:31;102716.00;;;18.98;35.20
59787;BME280;45672;51.612;5.536;2023-05-03T08:00:57;102694.47;;;19.80;34.19
59787;BME280;45672;51.612;5.536;2023-05-03T08:03:22;102700.03;;;21.06;32.93
59787;BME280;45672;51.612;5.536;2023-05-03T08:05:48;102704.81;;;22.03;29.71
59787;BME280;45672;51.612;5.536;2023-05-03T08:08:13;102693.88;;;21.82;30.03
59787;BME280;45672;51.612;5.536;2023-05-03T08:10:39;102687.13;;;21.78;29.62
59787;BME280;45672;51.612;5.536;2023-05-03T08:13:05;102691.53;;;22.53;29.15
59787;BME280;45672;51.612;5.536;2023-05-03T08:15:31;102692.09;;;22.85;28.62
59787;BME280;45672;51.612;5.536;2023-05-03T08:17:56;102687.03;;;23.40;28.46
59787;BME280;45672;51.612;5.536;2023-05-03T08:20:21;102675.50;;;23.88;27.04
59787;BME280;45672;51.612;5.536;2023-05-03T08:22:47;102676.22;;;23.47;27.35
59787;BME280;45672;51.612;5.536;2023-05-03T08:25:12;102680.56;;;23.70;27.33
59787;BME280;45672;51.612;5.536;2023-05-03T08:27:37;102684.59;;;24.09;25.94
59787;BME280;45672;51.612;5.536;2023-05-03T08:30:05;102676.91;;;23.84;27.03
59787;BME280;45672;51.612;5.536;2023-05-03T08:32:30;102686.44;;;24.02;26.20
59787;BME280;45672;51.612;5.536;2023-05-03T08:34:56;102687.63;;;24.69;25.50
59787;BME280;45672;51.612;5.536;2023-05-03T08:37:22;102687.41;;;24.71;25.34
59787;BME280;45672;51.612;5.536;2023-05-03T08:39:47;102684.88;;;24.21;25.50
59787;BME280;45672;51.612;5.536;2023-05-03T08:42:13;102675.00;;;24.06;25.23
59787;BME280;45672;51.612;5.536;2023-05-03T08:44:44;102678.16;;;24.17;26.53
59787;BME280;45672;51.612;5.536;2023-05-03T08:47:13;102678.94;;;24.04;25.46
59787;BME280;45672;51.612;5.536;2023-05-03T08:49:38;102683.72;;;24.02;24.66
59787;BME280;45672;51.612;5.536;2023-05-03T08:52:08;102673.91;;;23.44;26.21
59787;BME280;45672;51.612;5.536;2023-05-03T08:54:35;102669.50;;;25.37;24.30
59787;BME280;45672;51.612;5.536;2023-05-03T08:57:00;102665.13;;;26.35;23.00
59787;BME280;45672;51.612;5.536;2023-05-03T08:59:26;102680.06;;;27.09;23.03
59787;BME280;45672;51.612;5.536;2023-05-03T09:01:52;102681.16;;;27.77;21.46
59787;BME280;45672;51.612;5.536;2023-05-03T09:04:18;102688.09;;;26.97;22.25
59787;BME280;45672;51.612;5.536;2023-05-03T09:06:43;102696.56;;;27.21;21.09
59787;BME280;45672;51.612;5.536;2023-05-03T09:09:09;102688.25;;;27.09;21.96
59787;BME280;45672;51.612;5.536;2023-05-03T09:11:37;102688.81;;;27.43;21.09
59787;BME280;45672;51.612;5.536;2023-05-03T09:14:14;102688.97;;;25.80;23.88
59787;BME280;45672;51.612;5.536;2023-05-03T09:16:41;102696.50;;;25.92;22.54
59787;BME280;45672;51.612;5.536;2023-05-03T09:19:09;102689.34;;;26.70;22.27
59787;BME280;45672;51.612;5.536;2023-05-03T09:21:37;102688.16;;;27.73;21.54
59787;BME280;45672;51.612;5.536;2023-05-03T09:26:36;102692.16;;;26.49;22.38
59787;BME280;45672;51.612;5.536;2023-05-03T09:29:04;102686.00;;;26.99;22.02
59787;BME280;45672;51.612;5.536;2023-05-03T09:31:32;102686.22;;;27.55;21.96
59787;BME280;45672;51.612;5.536;2023-05-03T09:33:59;102686.59;;;28.21;20.48
59787;BME280;45672;51.612;5.536;2023-05-03T09:36:24;102685.69;;;28.76;20.03
59787;BME280;45672;51.612;5.536;2023-05-03T09:38:52;102680.63;;;28.43;19.85
59787;BME280;45672;51.612;5.536;2023-05-03T09:41:26;102677.59;;;27.95;21.68
59787;BME280;45672;51.612;5.536;2023-05-03T09:43:52;102684.59;;;28.28;20.83
59787;BME280;45672;51.612;5.536;2023-05-03T09:46:19;102680.97;;;28.34;20.55
59787;BME280;45672;51.612;5.536;2023-05-03T09:48:45;102673.97;;;28.20;20.12
59787;BME280;45672;51.612;5.536;2023-05-03T09:51:11;102673.97;;;28.20;20.08
59787;BME280;45672;51.612;5.536;2023-05-03T09:53:37;102675.28;;;28.66;20.08
59787;BME280;45672;51.612;5.536;2023-05-03T09:56:08;102671.97;;;28.76;20.05
59787;BME280;45672;51.612;5.536;2023-05-03T09:58:38;102674.34;;;29.15;18.77
59787;BME280;45672;51.612;5.536;2023-05-03T10:01:04;102673.88;;;28.27;20.11
59787;BME280;45672;51.612;5.536;2023-05-03T10:03:40;102660.31;;;28.50;21.26
59787;BME280;45672;51.612;5.536;2023-05-03T10:09:12;102667.38;;;30.31;19.05
59787;BME280;45672;51.612;5.536;2023-05-03T10:11:42;102662.25;;;30.97;18.14
59787;BME280;45672;51.612;5.536;2023-05-03T10:14:10;102669.16;;;31.11;17.61
59787;BME280;45672;51.612;5.536;2023-05-03T10:16:37;102666.75;;;29.40;18.63
59787;BME280;45672;51.612;5.536;2023-05-03T10:19:05;102671.28;;;29.35;19.35
59787;BME280;45672;51.612;5.536;2023-05-03T10:24:30;102664.63;;;31.05;17.58
59787;BME280;45672;51.612;5.536;2023-05-03T10:26:56;102668.28;;;29.96;18.45
59787;BME280;45672;51.612;5.536;2023-05-03T10:32:02;102660.03;;;23.89;23.98
59787;BME280;45672;51.612;5.536;2023-05-03T10:34:35;102660.88;;;22.08;27.48
59787;BME280;45672;51.612;5.536;2023-05-03T10:37:08;102661.56;;;20.64;29.12
59787;BME280;45672;51.612;5.536;2023-05-03T10:39:34;102666.09;;;19.85;30.49
59787;BME280;45672;51.612;5.536;2023-05-03T10:42:04;102660.03;;;19.25;31.35
59787;BME280;45672;51.612;5.536;2023-05-03T10:44:37;102656.50;;;18.49;32.53
59787;BME280;45672;51.612;5.536;2023-05-03T10:47:12;102654.00;;;18.13;33.03
59787;BME280;45672;51.612;5.536;2023-05-03T10:49:38;102655.50;;;17.89;33.80
59787;BME280;45672;51.612;5.536;2023-05-03T10:55:12;102658.66;;;16.96;35.78
59787;BME280;45672;51.612;5.536;2023-05-03T10:57:40;102649.91;;;16.84;36.07
59787;BME280;45672;51.612;5.536;2023-05-03T11:00:12;102649.88;;;17.12;36.38
59787;BME280;45672;51.612;5.536;2023-05-03T11:02:42;102645.25;;;17.22;35.46
59787;BME280;45672;51.612;5.536;2023-05-03T11:05:13;102650.22;;;17.09;36.34
59787;BME280;45672;51.612;5.536;2023-05-03T11:07:41;102646.31;;;16.75;35.00
59787;BME280;45672;51.612;5.536;2023-05-03T11:10:16;102643.78;;;16.46;35.48
59787;BME280;45672;51.612;5.536;2023-05-03T11:12:42;102627.09;;;16.70;36.94
59787;BME280;45672;51.612;5.536;2023-05-03T11:15:08;102639.06;;;17.03;36.01
59787;BME280;45672;51.612;5.536;2023-05-03T11:17:36;102638.38;;;17.01;35.26
59787;BME280;45672;51.612;5.536;2023-05-03T11:20:04;102628.25;;;16.67;36.19
59787;BME280;45672;51.612;5.536;2023-05-03T11:22:32;102623.94;;;16.57;37.34
59787;BME280;45672;51.612;5.536;2023-05-03T11:24:58;102624.13;;;16.73;36.55
59787;BME280;45672;51.612;5.536;2023-05-03T11:27:23;102635.97;;;16.98;36.33
59787;BME280;45672;51.612;5.536;2023-05-03T11:29:48;102620.97;;;16.78;36.92
59787;BME280;45672;51.612;5.536;2023-05-03T11:32:15;102621.84;;;16.68;38.08
59787;BME280;45672;51.612;5.536;2023-05-03T11:34:40;102618.22;;;16.87;37.14
59787;BME280;45672;51.612;5.536;2023-05-03T11:37:07;102612.75;;;16.79;37.49
59787;BME280;45672;51.612;5.536;2023-05-03T11:39:32;102617.66;;;16.66;36.33
59787;BME280;45672;51.612;5.536;2023-05-03T11:42:02;102607.50;;;16.60;36.58
59787;BME280;45672;51.612;5.536;2023-05-03T11:44:28;102596.94;;;16.30;38.56
59787;BME280;45672;51.612;5.536;2023-05-03T11:46:54;102586.28;;;16.38;37.91
59787;BME280;45672;51.612;5.536;2023-05-03T11:49:19;102590.28;;;16.52;37.52
59787;BME280;45672;51.612;5.536;2023-05-03T11:51:45;102596.28;;;16.64;36.34
59787;BME280;45672;51.612;5.536;2023-05-03T11:54:10;102596.44;;;16.45;36.33
59787;BME280;45672;51.612;5.536;2023-05-03T11:56:36;102595.25;;;16.29;36.50
59787;BME280;45672;51.612;5.536;2023-05-03T11:59:01;102583.88;;;16.35;37.03
59787;BME280;45672;51.612;5.536;2023-05-03T12:01:28;102578.00;;;16.50;36.52
59787;BME280;45672;51.612;5.536;2023-05-03T12:03:59;102587.06;;;16.67;36.32
59787;BME280;45672;51.612;5.536;2023-05-03T12:06:26;102582.16;;;16.62;36.22
59787;BME280;45672;51.612;5.536;2023-05-03T12:08:53;102580.22;;;16.36;36.62
59787;BME280;45672;51.612;5.536;2023-05-03T12:11:18;102559.63;;;16.27;36.91
59787;BME280;45672;51.612;5.536;2023-05-03T12:13:44;102553.41;;;16.27;36.98
59787;BME280;45672;51.612;5.536;2023-05-03T12:16:10;102559.47;;;16.29;38.16
59787;BME280;45672;51.612;5.536;2023-05-03T12:18:54;102557.81;;;16.46;38.34
59787;BME280;45672;51.612;5.536;2023-05-03T12:21:42;102550.03;;;16.43;37.72
59787;BME280;45672;51.612;5.536;2023-05-03T12:24:08;102543.28;;;16.38;38.64
59787;BME280;45672;51.612;5.536;2023-05-03T12:26:33;102539.97;;;16.27;37.45
59787;BME280;45672;51.612;5.536;2023-05-03T12:28:59;102549.75;;;16.28;37.65
59787;BME280;45672;51.612;5.536;2023-05-03T12:31:24;102550.31;;;16.03;36.80
59787;BME280;45672;51.612;5.536;2023-05-03T12:33:49;102549.41;;;15.75;37.71
59787;BME280;45672;51.612;5.536;2023-05-03T12:36:14;102534.59;;;15.81;39.30
59787;BME280;45672;51.612;5.536;2023-05-03T12:38:40;102528.72;;;15.95;37.54
59787;BME280;45672;51.612;5.536;2023-05-03T12:41:05;102520.34;;;15.98;37.43
59787;BME280;45672;51.612;5.536;2023-05-03T12:43:31;102511.56;;;16.24;39.05
59787;BME280;45672;51.612;5.536;2023-05-03T12:45:56;102517.50;;;16.46;39.20
59787;BME280;45672;51.612;5.536;2023-05-03T12:48:23;102502.09;;;16.48;37.94
59787;BME280;45672;51.612;5.536;2023-05-03T12:50:49;102499.38;;;16.30;38.79
59787;BME280;45672;51.612;5.536;2023-05-03T12:53:14;102500.13;;;16.04;38.20
59787;BME280;45672;51.612;5.536;2023-05-03T12:55:40;102495.72;;;16.03;39.97
59787;BME280;45672;51.612;5.536;2023-05-03T12:58:06;102501.66;;;16.07;38.53
59787;BME280;45672;51.612;5.536;2023-05-03T13:00:31;102496.44;;;16.05;38.31
59787;BME280;45672;51.612;5.536;2023-05-03T13:02:57;102493.44;;;16.08;38.40
59787;BME280;45672;51.612;5.536;2023-05-03T13:05:22;102490.78;;;16.08;38.82
59787;BME280;45672;51.612;5.536;2023-05-03T13:07:47;102491.31;;;16.12;38.50
59787;BME280;45672;51.612;5.536;2023-05-03T13:10:13;102486.03;;;16.20;39.37
59787;BME280;45672;51.612;5.536;2023-05-03T13:12:38;102480.13;;;16.34;37.47